sensor_id;sensor_type;location;lat;lon;timestamp;pressure;altitude;pressure_sealevel;temperature
20867;BMP280;10593;48.398;10.698;2023-03-01T00:01:12;96790.53;;;7.71
20867;BMP280;10593;48.398;10.698;2023-03-01T00:06:14;96782.84;;;7.67
20867;BMP280;10593;48.398;10.698;2023-03-01T00:08:40;96785.41;;;7.67
20867;BMP280;10593;48.398;10.698;2023-03-01T00:11:28;96781.13;;;7.66
20867;BMP280;10593;48.398;10.698;2023-03-01T00:26:54;96771.78;;;7.66
20867;BMP280;10593;48.398;10.698;2023-03-01T00:29:23;96773.47;;;7.67
20867;BMP280;10593;48.398;10.698;2023-03-01T00:31:49;96770.06;;;7.68
20867;BMP280;10593;48.398;10.698;2023-03-01T00:34:14;96770.91;;;7.69
20867;BMP280;10593;48.398;10.698;2023-03-01T00:36:40;96765.78;;;7.69
20867;BMP280;10593;48.398;10.698;2023-03-01T00:39:11;96762.38;;;7.71
20867;BMP280;10593;48.398;10.698;2023-03-01T00:41:37;96764.94;;;7.71
20867;BMP280;10593;48.398;10.698;2023-03-01T00:44:03;96754.72;;;7.71
20867;BMP280;10593;48.398;10.698;2023-03-01T00:46:29;96762.38;;;7.73
20867;BMP280;10593;48.398;10.698;2023-03-01T00:48:55;96755.56;;;7.73
20867;BMP280;10593;48.398;10.698;2023-03-01T00:51:27;96755.59;;;7.75
20867;BMP280;10593;48.398;10.698;2023-03-01T00:53:56;96747.03;;;7.73
20867;BMP280;10593;48.398;10.698;2023-03-01T00:56:22;96753.00;;;7.73
20867;BMP280;10593;48.398;10.698;2023-03-01T00:58:48;96744.47;;;7.73
20867;BMP280;10593;48.398;10.698;2023-03-01T01:01:23;96746.19;;;7.72
20867;BMP280;10593;48.398;10.698;2023-03-01T01:04:03;96742.75;;;7.72
20867;BMP280;10593;48.398;10.698;2023-03-01T01:06:36;96737.66;;;7.70
20867;BMP280;10593;48.398;10.698;2023-03-01T01:09:04;96732.56;;;7.70
20867;BMP280;10593;48.398;10.698;2023-03-01T01:11:31;96729.16;;;7.71
20867;BMP280;10593;48.398;10.698;2023-03-01T01:13:58;96722.31;;;7.70
20867;BMP280;10593;48.398;10.698;2023-03-01T01:16:27;96727.44;;;7.70
20867;BMP280;10593;48.398;10.698;2023-03-01T01:18:53;96730.00;;;7.70
20867;BMP280;10593;48.398;10.698;2023-03-01T01:21:22;96720.59;;;7.71
20867;BMP280;10593;48.398;10.698;2023-03-01T01:23:49;96714.66;;;7.70
20867;BMP280;10593;48.398;10.698;2023-03-01T01:26:32;96711.22;;;7.70
20867;BMP280;10593;48.398;10.698;2023-03-01T01:28:59;96712.94;;;7.69
20867;BMP280;10593;48.398;10.698;2023-03-01T01:31:27;96715.50;;;7.69
20867;BMP280;10593;48.398;10.698;2023-03-01T01:33:54;96708.69;;;7.71
20867;BMP280;10593;48.398;10.698;2023-03-01T01:36:21;96706.13;;;7.71
20867;BMP280;10593;48.398;10.698;2023-03-01T01:38:47;96706.97;;;7.73
20867;BMP280;10593;48.398;10.698;2023-03-01T01:41:14;96702.72;;;7.74
20867;BMP280;10593;48.398;10.698;2023-03-01T01:43:44;96700.16;;;7.75
20867;BMP280;10593;48.398;10.698;2023-03-01T01:46:24;96696.75;;;7.76
20867;BMP280;10593;48.398;10.698;2023-03-01T01:49:04;96689.91;;;7.75
20867;BMP280;10593;48.398;10.698;2023-03-01T01:51:40;96694.19;;;7.76
20867;BMP280;10593;48.398;10.698;2023-03-01T01:54:14;96701.88;;;7.73
20867;BMP280;10593;48.398;10.698;2023-03-01T01:56:57;96702.72;;;7.74
20867;BMP280;10593;48.398;10.698;2023-03-01T01:59:26;96704.41;;;7.72
20867;BMP280;10593;48.398;10.698;2023-03-01T02:01:54;96693.34;;;7.71
20867;BMP280;10593;48.398;10.698;2023-03-01T02:04:20;96694.19;;;7.70
20867;BMP280;10593;48.398;10.698;2023-03-01T02:07:14;96701.03;;;7.68
20867;BMP280;10593;48.398;10.698;2023-03-01T02:09:45;96696.75;;;7.67
20867;BMP280;10593;48.398;10.698;2023-03-01T02:12:14;96696.75;;;7.67
20867;BMP280;10593;48.398;10.698;2023-03-01T02:14:42;96701.03;;;7.68
20867;BMP280;10593;48.398;10.698;2023-03-01T02:17:10;96695.91;;;7.68
20867;BMP280;10593;48.398;10.698;2023-03-01T02:20:39;96692.50;;;7.69
20867;BMP280;10593;48.398;10.698;2023-03-01T02:22:46;96684.81;;;7.69
20867;BMP280;10593;48.398;10.698;2023-03-01T02:25:23;96689.09;;;7.70
20867;BMP280;10593;48.398;10.698;2023-03-01T02:28:36;96686.53;;;7.70
20867;BMP280;10593;48.398;10.698;2023-03-01T02:31:05;96676.28;;;7.70
20867;BMP280;10593;48.398;10.698;2023-03-01T02:33:52;96683.09;;;7.70
20867;BMP280;10593;48.398;10.698;2023-03-01T02:36:26;96681.41;;;7.70
20867;BMP280;10593;48.398;10.698;2023-03-01T02:38:57;96678.84;;;7.70
20867;BMP280;10593;48.398;10.698;2023-03-01T02:41:26;96674.59;;;7.69
20867;BMP280;10593;48.398;10.698;2023-03-01T02:43:53;96667.78;;;7.68
20867;BMP280;10593;48.398;10.698;2023-03-01T02:46:24;96667.78;;;7.68
20867;BMP280;10593;48.398;10.698;2023-03-01T02:48:54;96667.75;;;7.65
20867;BMP280;10593;48.398;10.698;2023-03-01T02:54:24;96670.31;;;7.59
20867;BMP280;10593;48.398;10.698;2023-03-01T02:56:52;96668.63;;;7.55
20867;BMP280;10593;48.398;10.698;2023-03-01T02:59:22;96664.38;;;7.54
20867;BMP280;10593;48.398;10.698;2023-03-01T03:01:48;96662.66;;;7.52
20867;BMP280;10593;48.398;10.698;2023-03-01T03:04:17;96664.34;;;7.51
20867;BMP280;10593;48.398;10.698;2023-03-01T03:06:48;96659.22;;;7.51
20867;BMP280;10593;48.398;10.698;2023-03-01T03:09:16;96665.19;;;7.52
20867;BMP280;10593;48.398;10.698;2023-03-01T03:11:42;96657.53;;;7.50
20867;BMP280;10593;48.398;10.698;2023-03-01T03:14:11;96657.53;;;7.50
20867;BMP280;10593;48.398;10.698;2023-03-01T03:16:50;96662.66;;;7.49
20867;BMP280;10593;48.398;10.698;2023-03-01T03:19:18;96652.41;;;7.47
20867;BMP280;10593;48.398;10.698;2023-03-01T03:21:43;96645.59;;;7.43
20867;BMP280;10593;48.398;10.698;2023-03-01T03:24:09;96645.59;;;7.43
20867;BMP280;10593;48.398;10.698;2023-03-01T03:26:35;96650.69;;;7.42
20867;BMP280;10593;48.398;10.698;2023-03-01T03:29:01;96651.56;;;7.41
20867;BMP280;10593;48.398;10.698;2023-03-01T03:31:27;96655.84;;;7.40
20867;BMP280;10593;48.398;10.698;2023-03-01T03:33:53;96648.16;;;7.40
20867;BMP280;10593;48.398;10.698;2023-03-01T03:36:23;96641.31;;;7.39
20867;BMP280;10593;48.398;10.698;2023-03-01T03:38:48;96650.69;;;7.37
20867;BMP280;10593;48.398;10.698;2023-03-01T03:41:15;96648.13;;;7.37
20867;BMP280;10593;48.398;10.698;2023-03-01T03:43:43;96655.81;;;7.36
20867;BMP280;10593;48.398;10.698;2023-03-01T03:46:11;96649.00;;;7.36
20867;BMP280;10593;48.398;10.698;2023-03-01T03:48:43;96650.72;;;7.36
20867;BMP280;10593;48.398;10.698;2023-03-01T03:51:15;96651.53;;;7.36
20867;BMP280;10593;48.398;10.698;2023-03-01T03:53:41;96645.56;;;7.37
20867;BMP280;10593;48.398;10.698;2023-03-01T03:56:08;96646.44;;;7.38
20867;BMP280;10593;48.398;10.698;2023-03-01T03:58:34;96645.56;;;7.37
20867;BMP280;10593;48.398;10.698;2023-03-01T04:01:00;96643.91;;;7.38
20867;BMP280;10593;48.398;10.698;2023-03-01T04:03:27;96629.41;;;7.40
20867;BMP280;10593;48.398;10.698;2023-03-01T04:05:54;96629.41;;;7.41
20867;BMP280;10593;48.398;10.698;2023-03-01T04:08:23;96631.97;;;7.41
20867;BMP280;10593;48.398;10.698;2023-03-01T04:10:52;96632.81;;;7.42
20867;BMP280;10593;48.398;10.698;2023-03-01T04:13:22;96630.25;;;7.39
20867;BMP280;10593;48.398;10.698;2023-03-01T04:15:52;96626.00;;;7.38
20867;BMP280;10593;48.398;10.698;2023-03-01T04:18:20;96623.44;;;7.36
20867;BMP280;10593;48.398;10.698;2023-03-01T04:20:47;96623.44;;;7.36
20867;BMP280;10593;48.398;10.698;2023-03-01T04:23:16;96624.28;;;7.35
20867;BMP280;10593;48.398;10.698;2023-03-01T04:26:11;96619.19;;;7.34
20867;BMP280;10593;48.398;10.698;2023-03-01T04:28:41;96612.38;;;7.33
20867;BMP280;10593;48.398;10.698;2023-03-01T04:31:16;96614.94;;;7.33
20867;BMP280;10593;48.398;10.698;2023-03-01T04:33:50;96614.91;;;7.34
20867;BMP280;10593;48.398;10.698;2023-03-01T04:36:18;96610.66;;;7.35
20867;BMP280;10593;48.398;10.698;2023-03-01T04:38:45;96614.91;;;7.34
20867;BMP280;10593;48.398;10.698;2023-03-01T04:41:17;96608.94;;;7.35
20867;BMP280;10593;48.398;10.698;2023-03-01T04:43:43;96612.38;;;7.36
20867;BMP280;10593;48.398;10.698;2023-03-01T04:46:14;96611.53;;;7.37
20867;BMP280;10593;48.398;10.698;2023-03-01T04:48:42;96608.09;;;7.36
20867;BMP280;10593;48.398;10.698;2023-03-01T04:51:08;96609.81;;;7.34
20867;BMP280;10593;48.398;10.698;2023-03-01T04:53:37;96609.81;;;7.34
20867;BMP280;10593;48.398;10.698;2023-03-01T04:56:03;96608.09;;;7.32
20867;BMP280;10593;48.398;10.698;2023-03-01T04:58:29;96614.91;;;7.30
20867;BMP280;10593;48.398;10.698;2023-03-01T05:00:55;96607.25;;;7.28
20867;BMP280;10593;48.398;10.698;2023-03-01T05:03:21;96604.69;;;7.28
20867;BMP280;10593;48.398;10.698;2023-03-01T05:05:50;96609.81;;;7.28
20867;BMP280;10593;48.398;10.698;2023-03-01T05:08:17;96602.13;;;7.27
20867;BMP280;10593;48.398;10.698;2023-03-01T05:10:53;96612.34;;;7.27
20867;BMP280;10593;48.398;10.698;2023-03-01T05:13:21;96605.53;;;7.26
20867;BMP280;10593;48.398;10.698;2023-03-01T05:15:54;96604.69;;;7.25
20867;BMP280;10593;48.398;10.698;2023-03-01T05:18:20;96597.88;;;7.24
20867;BMP280;10593;48.398;10.698;2023-03-01T05:20:46;96606.38;;;7.23
20867;BMP280;10593;48.398;10.698;2023-03-01T05:23:12;96607.25;;;7.22
20867;BMP280;10593;48.398;10.698;2023-03-01T05:25:38;96605.53;;;7.21
20867;BMP280;10593;48.398;10.698;2023-03-01T05:28:10;96606.38;;;7.19
20867;BMP280;10593;48.398;10.698;2023-03-01T05:30:37;96601.28;;;7.17
20867;BMP280;10593;48.398;10.698;2023-03-01T05:33:05;96600.41;;;7.17
20867;BMP280;10593;48.398;10.698;2023-03-01T05:35:35;96601.28;;;7.13
20867;BMP280;10593;48.398;10.698;2023-03-01T05:38:02;96602.97;;;7.11
20867;BMP280;10593;48.398;10.698;2023-03-01T05:40:28;96597.84;;;7.09
20867;BMP280;10593;48.398;10.698;2023-03-01T05:42:56;96592.75;;;7.09
20867;BMP280;10593;48.398;10.698;2023-03-01T05:45:25;96602.13;;;7.09
20867;BMP280;10593;48.398;10.698;2023-03-01T05:47:51;96600.44;;;7.08
20867;BMP280;10593;48.398;10.698;2023-03-01T05:50:22;96600.44;;;7.08
20867;BMP280;10593;48.398;10.698;2023-03-01T05:53:01;96611.47;;;7.11
20867;BMP280;10593;48.398;10.698;2023-03-01T05:55:29;96604.66;;;7.10
20867;BMP280;10593;48.398;10.698;2023-03-01T05:58:03;96607.22;;;7.10
20867;BMP280;10593;48.398;10.698;2023-03-01T06:00:30;96608.06;;;7.09
20867;BMP280;10593;48.398;10.698;2023-03-01T06:02:57;96614.88;;;7.10
20867;BMP280;10593;48.398;10.698;2023-03-01T06:05:23;96616.59;;;7.08
20867;BMP280;10593;48.398;10.698;2023-03-01T06:07:50;96613.19;;;7.08
20867;BMP280;10593;48.398;10.698;2023-03-01T06:10:17;96614.06;;;7.07
20867;BMP280;10593;48.398;10.698;2023-03-01T06:12:43;96607.22;;;7.04
20867;BMP280;10593;48.398;10.698;2023-03-01T06:15:13;96609.78;;;7.04
20867;BMP280;10593;48.398;10.698;2023-03-01T06:17:41;96609.78;;;7.04
20867;BMP280;10593;48.398;10.698;2023-03-01T06:20:21;96615.75;;;7.03
20867;BMP280;10593;48.398;10.698;2023-03-01T06:22:48;96608.91;;;7.04
20867;BMP280;10593;48.398;10.698;2023-03-01T06:25:18;96614.91;;;7.01
20867;BMP280;10593;48.398;10.698;2023-03-01T06:27:45;96612.34;;;7.01
20867;BMP280;10593;48.398;10.698;2023-03-01T06:30:15;96614.03;;;7.01
20867;BMP280;10593;48.398;10.698;2023-03-01T06:32:41;96621.72;;;6.99
20867;BMP280;10593;48.398;10.698;2023-03-01T06:35:12;96622.53;;;6.97
20867;BMP280;10593;48.398;10.698;2023-03-01T06:37:38;96619.13;;;6.95
20867;BMP280;10593;48.398;10.698;2023-03-01T06:40:06;96619.09;;;6.92
20867;BMP280;10593;48.398;10.698;2023-03-01T06:42:41;96617.41;;;6.91
20867;BMP280;10593;48.398;10.698;2023-03-01T06:45:09;96616.56;;;6.90
20867;BMP280;10593;48.398;10.698;2023-03-01T06:47:34;96625.91;;;6.90
20867;BMP280;10593;48.398;10.698;2023-03-01T06:50:02;96613.16;;;6.88
20867;BMP280;10593;48.398;10.698;2023-03-01T06:52:28;96621.69;;;6.87
20867;BMP280;10593;48.398;10.698;2023-03-01T06:54:53;96607.22;;;6.86
20867;BMP280;10593;48.398;10.698;2023-03-01T06:57:19;96613.13;;;6.85
20867;BMP280;10593;48.398;10.698;2023-03-01T06:59:47;96605.47;;;6.85
20867;BMP280;10593;48.398;10.698;2023-03-01T07:02:13;96611.44;;;6.86
20867;BMP280;10593;48.398;10.698;2023-03-01T07:04:41;96614.88;;;6.86
20867;BMP280;10593;48.398;10.698;2023-03-01T07:07:06;96613.13;;;6.85
20867;BMP280;10593;48.398;10.698;2023-03-01T07:09:32;96608.03;;;6.85
20867;BMP280;10593;48.398;10.698;2023-03-01T07:11:58;96608.03;;;6.85
20867;BMP280;10593;48.398;10.698;2023-03-01T07:14:24;96606.34;;;6.86
20867;BMP280;10593;48.398;10.698;2023-03-01T07:16:52;96608.88;;;6.86
20867;BMP280;10593;48.398;10.698;2023-03-01T07:19:18;96608.91;;;6.87
20867;BMP280;10593;48.398;10.698;2023-03-01T07:21:44;96606.34;;;6.87
20867;BMP280;10593;48.398;10.698;2023-03-01T07:24:10;96600.41;;;6.88
20867;BMP280;10593;48.398;10.698;2023-03-01T07:26:36;96588.47;;;6.89
20867;BMP280;10593;48.398;10.698;2023-03-01T07:29:04;96598.69;;;6.90
20867;BMP280;10593;48.398;10.698;2023-03-01T07:31:31;96593.59;;;6.90
20867;BMP280;10593;48.398;10.698;2023-03-01T07:33:56;96591.03;;;6.90
20867;BMP280;10593;48.398;10.698;2023-03-01T07:36:24;96593.59;;;6.90
20867;BMP280;10593;48.398;10.698;2023-03-01T07:38:50;96591.03;;;6.90
20867;BMP280;10593;48.398;10.698;2023-03-01T07:41:16;96580.81;;;6.90
20867;BMP280;10593;48.398;10.698;2023-03-01T07:43:41;96585.91;;;6.90
20867;BMP280;10593;48.398;10.698;2023-03-01T07:46:07;96583.34;;;6.89
20867;BMP280;10593;48.398;10.698;2023-03-01T07:48:33;96577.41;;;6.90
20867;BMP280;10593;48.398;10.698;2023-03-01T07:51:00;96568.91;;;6.89
20867;BMP280;10593;48.398;10.698;2023-03-01T07:53:26;96576.56;;;6.89
20867;BMP280;10593;48.398;10.698;2023-03-01T07:56:11;96573.16;;;6.90
20867;BMP280;10593;48.398;10.698;2023-03-01T07:58:40;96578.25;;;6.92
20867;BMP280;10593;48.398;10.698;2023-03-01T08:01:09;96574.00;;;6.92
20867;BMP280;10593;48.398;10.698;2023-03-01T08:03:36;96567.19;;;6.94
20867;BMP280;10593;48.398;10.698;2023-03-01T08:06:05;96565.47;;;6.96
20867;BMP280;10593;48.398;10.698;2023-03-01T08:08:32;96565.50;;;6.98
20867;BMP280;10593;48.398;10.698;2023-03-01T08:11:03;96568.91;;;7.01
20867;BMP280;10593;48.398;10.698;2023-03-01T08:13:30;96571.47;;;7.01
20867;BMP280;10593;48.398;10.698;2023-03-01T08:16:05;96568.06;;;7.02
20867;BMP280;10593;48.398;10.698;2023-03-01T08:18:32;96570.63;;;7.02
20867;BMP280;10593;48.398;10.698;2023-03-01T08:21:09;96563.81;;;7.04
20867;BMP280;10593;48.398;10.698;2023-03-01T08:23:36;96563.78;;;7.03
20867;BMP280;10593;48.398;10.698;2023-03-01T08:26:15;96574.84;;;7.05
20867;BMP280;10593;48.398;10.698;2023-03-01T08:28:41;96568.94;;;7.06
20867;BMP280;10593;48.398;10.698;2023-03-01T08:31:25;96568.06;;;7.07
20867;BMP280;10593;48.398;10.698;2023-03-01T08:33:55;96569.75;;;7.09
20867;BMP280;10593;48.398;10.698;2023-03-01T08:36:26;96563.78;;;7.10
20867;BMP280;10593;48.398;10.698;2023-03-01T08:38:53;96579.13;;;7.12
20867;BMP280;10593;48.398;10.698;2023-03-01T08:41:19;96577.41;;;7.12
20867;BMP280;10593;48.398;10.698;2023-03-01T08:43:45;96567.22;;;7.15
20867;BMP280;10593;48.398;10.698;2023-03-01T08:46:12;96557.00;;;7.18
20867;BMP280;10593;48.398;10.698;2023-03-01T08:48:38;96561.25;;;7.21
20867;BMP280;10593;48.398;10.698;2023-03-01T08:51:13;96557.84;;;7.23
20867;BMP280;10593;48.398;10.698;2023-03-01T08:53:40;96557.84;;;7.25
20867;BMP280;10593;48.398;10.698;2023-03-01T08:56:07;96560.41;;;7.26
20867;BMP280;10593;48.398;10.698;2023-03-01T08:58:33;96552.75;;;7.29
20867;BMP280;10593;48.398;10.698;2023-03-01T09:00:59;96551.03;;;7.31
20867;BMP280;10593;48.398;10.698;2023-03-01T09:03:26;96539.09;;;7.33
20867;BMP280;10593;48.398;10.698;2023-03-01T09:05:52;96551.03;;;7.34
20867;BMP280;10593;48.398;10.698;2023-03-01T09:08:19;96544.19;;;7.36
20867;BMP280;10593;48.398;10.698;2023-03-01T09:10:45;96552.72;;;7.37
20867;BMP280;10593;48.398;10.698;2023-03-01T09:13:12;96546.75;;;7.38
20867;BMP280;10593;48.398;10.698;2023-03-01T09:15:38;96554.41;;;7.39
20867;BMP280;10593;48.398;10.698;2023-03-01T09:18:04;96554.44;;;7.41
20867;BMP280;10593;48.398;10.698;2023-03-01T09:20:32;96538.25;;;7.40
20867;BMP280;10593;48.398;10.698;2023-03-01T09:22:58;96539.09;;;7.41
20867;BMP280;10593;48.398;10.698;2023-03-01T09:25:24;96534.84;;;7.41
20867;BMP280;10593;48.398;10.698;2023-03-01T09:27:53;96528.88;;;7.42
20867;BMP280;10593;48.398;10.698;2023-03-01T09:30:20;96526.31;;;7.42
20867;BMP280;10593;48.398;10.698;2023-03-01T09:32:46;96533.97;;;7.44
20867;BMP280;10593;48.398;10.698;2023-03-01T09:35:12;96531.41;;;7.44
20867;BMP280;10593;48.398;10.698;2023-03-01T09:37:38;96534.81;;;7.46
20867;BMP280;10593;48.398;10.698;2023-03-01T09:40:17;96536.53;;;7.47
20867;BMP280;10593;48.398;10.698;2023-03-01T09:43:03;96535.69;;;7.48
20867;BMP280;10593;48.398;10.698;2023-03-01T09:45:38;96533.97;;;7.48
20867;BMP280;10593;48.398;10.698;2023-03-01T09:48:21;96533.97;;;7.50
20867;BMP280;10593;48.398;10.698;2023-03-01T09:50:50;96535.66;;;7.52
20867;BMP280;10593;48.398;10.698;2023-03-01T09:53:31;96533.97;;;7.53
20867;BMP280;10593;48.398;10.698;2023-03-01T09:56:28;96516.06;;;7.54
20867;BMP280;10593;48.398;10.698;2023-03-01T09:59:15;96510.09;;;7.57
20867;BMP280;10593;48.398;10.698;2023-03-01T10:02:21;96494.75;;;7.60
20867;BMP280;10593;48.398;10.698;2023-03-01T10:04:55;96507.50;;;7.64
20867;BMP280;10593;48.398;10.698;2023-03-01T10:07:50;96494.75;;;7.67
20867;BMP280;10593;48.398;10.698;2023-03-01T10:10:37;96496.44;;;7.68
20867;BMP280;10593;48.398;10.698;2023-03-01T10:13:19;96503.22;;;7.71
20867;BMP280;10593;48.398;10.698;2023-03-01T10:16:14;96482.78;;;7.72
20867;BMP280;10593;48.398;10.698;2023-03-01T10:18:41;96483.59;;;7.77
20867;BMP280;10593;48.398;10.698;2023-03-01T10:21:20;96492.13;;;7.82
20867;BMP280;10593;48.398;10.698;2023-03-01T10:23:50;96485.28;;;7.87
20867;BMP280;10593;48.398;10.698;2023-03-01T10:27:16;96480.16;;;7.90
20867;BMP280;10593;48.398;10.698;2023-03-01T10:29:44;96482.69;;;7.95
20867;BMP280;10593;48.398;10.698;2023-03-01T10:32:13;96475.84;;;8.01
20867;BMP280;10593;48.398;10.698;2023-03-01T10:34:38;96480.94;;;8.06
20867;BMP280;10593;48.398;10.698;2023-03-01T10:37:17;96479.22;;;8.11
20867;BMP280;10593;48.398;10.698;2023-03-01T10:40:08;96469.81;;;8.13
20867;BMP280;10593;48.398;10.698;2023-03-01T10:42:47;96457.84;;;8.16
20867;BMP280;10593;48.398;10.698;2023-03-01T10:45:30;96455.31;;;8.21
20867;BMP280;10593;48.398;10.698;2023-03-01T10:48:17;96454.47;;;8.23
20867;BMP280;10593;48.398;10.698;2023-03-01T10:50:48;96448.44;;;8.27
20867;BMP280;10593;48.398;10.698;2023-03-01T10:53:41;96439.91;;;8.29
20867;BMP280;10593;48.398;10.698;2023-03-01T10:56:13;96437.34;;;8.32
20867;BMP280;10593;48.398;10.698;2023-03-01T10:58:56;96441.59;;;8.35
20867;BMP280;10593;48.398;10.698;2023-03-01T11:04:11;96444.09;;;8.47
20867;BMP280;10593;48.398;10.698;2023-03-01T11:06:41;96432.94;;;8.51
20867;BMP280;10593;48.398;10.698;2023-03-01T11:09:22;96435.47;;;8.55
20867;BMP280;10593;48.398;10.698;2023-03-01T11:11:57;96433.72;;;8.59
20867;BMP280;10593;48.398;10.698;2023-03-01T11:14:33;96428.56;;;8.63
20867;BMP280;10593;48.398;10.698;2023-03-01T11:17:13;96423.41;;;8.68
20867;BMP280;10593;48.398;10.698;2023-03-01T11:19:40;96428.50;;;8.72
20867;BMP280;10593;48.398;10.698;2023-03-01T11:22:18;96418.25;;;8.77
20867;BMP280;10593;48.398;10.698;2023-03-01T11:24:54;96407.97;;;8.78
20867;BMP280;10593;48.398;10.698;2023-03-01T11:27:35;96400.28;;;8.81
20867;BMP280;10593;48.398;10.698;2023-03-01T11:30:21;96395.94;;;8.85
20867;BMP280;10593;48.398;10.698;2023-03-01T11:33:20;96390.81;;;8.88
20867;BMP280;10593;48.398;10.698;2023-03-01T11:35:59;96393.31;;;8.92
20867;BMP280;10593;48.398;10.698;2023-03-01T11:38:28;96373.63;;;8.96
20867;BMP280;10593;48.398;10.698;2023-03-01T11:41:17;96377.03;;;8.98
20867;BMP280;10593;48.398;10.698;2023-03-01T11:52:15;96360.72;;;9.06
20867;BMP280;10593;48.398;10.698;2023-03-01T11:55:17;96362.41;;;9.10
20867;BMP280;10593;48.398;10.698;2023-03-01T12:06:57;96346.88;;;9.24
20867;BMP280;10593;48.398;10.698;2023-03-01T12:15:52;96327.09;;;9.35
20867;BMP280;10593;48.398;10.698;2023-03-01T12:21:47;96316.75;;;9.42
20867;BMP280;10593;48.398;10.698;2023-03-01T12:33:45;96314.84;;;9.56
20867;BMP280;10593;48.398;10.698;2023-03-01T12:42:54;96297.66;;;9.63
20867;BMP280;10593;48.398;10.698;2023-03-01T12:51:26;96293.28;;;9.71
20867;BMP280;10593;48.398;10.698;2023-03-01T12:53:55;96288.94;;;9.74
20867;BMP280;10593;48.398;10.698;2023-03-01T12:56:29;96296.56;;;9.79
20867;BMP280;10593;48.398;10.698;2023-03-01T12:59:20;96294.81;;;9.82
20867;BMP280;10593;48.398;10.698;2023-03-01T13:02:19;96282.81;;;9.84
20867;BMP280;10593;48.398;10.698;2023-03-01T13:05:15;96282.75;;;9.87
20867;BMP280;10593;48.398;10.698;2023-03-01T13:08:01;96293.00;;;9.90
20867;BMP280;10593;48.398;10.698;2023-03-01T13:10:46;96273.28;;;9.92
20867;BMP280;10593;48.398;10.698;2023-03-01T13:13:26;96269.00;;;9.94
20867;BMP280;10593;48.398;10.698;2023-03-01T13:15:54;96274.06;;;9.99
20867;BMP280;10593;48.398;10.698;2023-03-01T13:20:49;96261.16;;;10.05
20867;BMP280;10593;48.398;10.698;2023-03-01T13:26:10;96277.34;;;10.10
20867;BMP280;10593;48.398;10.698;2023-03-01T13:34:04;96274.66;;;10.16
20867;BMP280;10593;48.398;10.698;2023-03-01T13:39:39;96268.59;;;10.23
20867;BMP280;10593;48.398;10.698;2023-03-01T13:42:40;96267.72;;;10.24
20867;BMP280;10593;48.398;10.698;2023-03-01T13:45:36;96277.03;;;10.28
20867;BMP280;10593;48.398;10.698;2023-03-01T13:48:15;96274.47;;;10.28
20867;BMP280;10593;48.398;10.698;2023-03-01T13:50:52;96279.53;;;10.32
20867;BMP280;10593;48.398;10.698;2023-03-01T13:53:22;96282.91;;;10.36
20867;BMP280;10593;48.398;10.698;2023-03-01T13:55:58;96282.00;;;10.38
20867;BMP280;10593;48.398;10.698;2023-03-01T13:58:44;96282.81;;;10.40
20867;BMP280;10593;48.398;10.698;2023-03-01T14:01:33;96281.94;;;10.42
20867;BMP280;10593;48.398;10.698;2023-03-01T14:04:00;96300.78;;;10.43
20867;BMP280;10593;48.398;10.698;2023-03-01T14:06:30;96285.31;;;10.46
20867;BMP280;10593;48.398;10.698;2023-03-01T14:09:16;96276.69;;;10.48
20867;BMP280;10593;48.398;10.698;2023-03-01T14:14:55;96274.91;;;10.52
20867;BMP280;10593;48.398;10.698;2023-03-01T14:17:57;96272.31;;;10.53
20867;BMP280;10593;48.398;10.698;2023-03-01T14:20:30;96268.88;;;10.54
20867;BMP280;10593;48.398;10.698;2023-03-01T14:23:02;96266.22;;;10.59
20867;BMP280;10593;48.398;10.698;2023-03-01T14:25:36;96270.44;;;10.61
20867;BMP280;10593;48.398;10.698;2023-03-01T14:28:22;96272.13;;;10.65
20867;BMP280;10593;48.398;10.698;2023-03-01T14:30:52;96260.09;;;10.67
20867;BMP280;10593;48.398;10.698;2023-03-01T14:33:32;96260.03;;;10.70
20867;BMP280;10593;48.398;10.698;2023-03-01T14:36:12;96253.13;;;10.72
20867;BMP280;10593;48.398;10.698;2023-03-01T14:38:47;96245.38;;;10.75
20867;BMP280;10593;48.398;10.698;2023-03-01T14:41:24;96244.50;;;10.76
20867;BMP280;10593;48.398;10.698;2023-03-01T14:44:22;96241.00;;;10.79
20867;BMP280;10593;48.398;10.698;2023-03-01T14:46:55;96246.94;;;10.82
20867;BMP280;10593;48.398;10.698;2023-03-01T14:49:30;96248.63;;;10.85
20867;BMP280;10593;48.398;10.698;2023-03-01T14:52:06;96251.16;;;10.86
20867;BMP280;10593;48.398;10.698;2023-03-01T14:54:44;96251.97;;;10.88
20867;BMP280;10593;48.398;10.698;2023-03-01T14:57:23;96239.97;;;10.89
20867;BMP280;10593;48.398;10.698;2023-03-01T14:59:51;96246.81;;;10.90
20867;BMP280;10593;48.398;10.698;2023-03-01T15:02:24;96239.91;;;10.92
20867;BMP280;10593;48.398;10.698;2023-03-01T15:04:55;96227.03;;;10.93
20867;BMP280;10593;48.398;10.698;2023-03-01T15:07:48;96215.84;;;10.96
20867;BMP280;10593;48.398;10.698;2023-03-01T15:10:35;96214.13;;;10.96
20867;BMP280;10593;48.398;10.698;2023-03-01T15:13:25;96201.25;;;10.98
20867;BMP280;10593;48.398;10.698;2023-03-01T15:16:01;96200.38;;;10.99
20867;BMP280;10593;48.398;10.698;2023-03-01T15:18:29;96196.88;;;11.01
20867;BMP280;10593;48.398;10.698;2023-03-01T15:21:06;96201.16;;;11.02
20867;BMP280;10593;48.398;10.698;2023-03-01T15:23:35;96196.84;;;11.03
20867;BMP280;10593;48.398;10.698;2023-03-01T15:26:02;96182.22;;;11.05
20867;BMP280;10593;48.398;10.698;2023-03-01T15:28:37;96185.63;;;11.07
20867;BMP280;10593;48.398;10.698;2023-03-01T15:31:25;96183.03;;;11.08
20867;BMP280;10593;48.398;10.698;2023-03-01T15:33:51;96203.56;;;11.10
20867;BMP280;10593;48.398;10.698;2023-03-01T15:36:44;96214.69;;;11.10
20867;BMP280;10593;48.398;10.698;2023-03-01T15:39:41;96208.72;;;11.10
20867;BMP280;10593;48.398;10.698;2023-03-01T15:45:21;96211.22;;;11.13
20867;BMP280;10593;48.398;10.698;2023-03-01T15:48:04;96210.34;;;11.12
20867;BMP280;10593;48.398;10.698;2023-03-01T15:50:33;96210.28;;;11.15
20867;BMP280;10593;48.398;10.698;2023-03-01T15:53:03;96213.69;;;11.17
20867;BMP280;10593;48.398;10.698;2023-03-01T15:55:32;96214.50;;;11.19
20867;BMP280;10593;48.398;10.698;2023-03-01T15:58:17;96214.47;;;11.21
20867;BMP280;10593;48.398;10.698;2023-03-01T16:00:45;96214.44;;;11.22
20867;BMP280;10593;48.398;10.698;2023-03-01T16:03:12;96217.81;;;11.24
20867;BMP280;10593;48.398;10.698;2023-03-01T16:05:38;96213.53;;;11.25
20867;BMP280;10593;48.398;10.698;2023-03-01T16:08:05;96210.91;;;11.28